Flight Track Log - Related Links

Times and Time Zones

All times are in EDT time to prevent confusion due to time zone crossing. See the CSZ9553 flight status page for this flight to view local times or setup timezone preferences in your user account.

Time Position Orientation Groundspeed Altitude Reporting Facility
EDT Latitude Longitude Course Direction KTS MPH feet Rate Location/Type
Thu 11:35:00 PM 24.1991 112.9988 341° North  Level Estimated
Thu 11:36:00 PM 24.2887 112.9652 341° North  Level Estimated
Thu 11:37:00 PM 24.3861 112.9286 341° North  Level Estimated
Thu 11:38:00 PM 24.4835 112.8920 341° North  Level Estimated
Thu 11:39:00 PM 24.5810 112.8553 341° North  Level Estimated
Thu 11:40:00 PM 24.6784 112.8186 341° North  Level Estimated
Thu 11:41:00 PM 24.7758 112.7818 341° North  Level Estimated
Thu 11:42:00 PM 24.8732 112.7449 341° North  Level Estimated
Thu 11:43:00 PM 24.9706 112.7080 341° North  Level Estimated
Thu 11:44:00 PM 25.0679 112.6711 341° North  Level Estimated
Thu 11:45:00 PM 25.1653 112.6340 341° North  Level Estimated
Thu 11:46:00 PM 25.2627 112.5970 341° North  Level Estimated
Thu 11:47:00 PM 25.3600 112.5598 341° North  Level Estimated
Thu 11:48:00 PM 25.4574 112.5226 341° North  Level Estimated
Thu 11:49:00 PM 25.5547 112.4854 341° North  Level Estimated
Thu 11:50:00 PM 25.6520 112.4480 341° North  Level Estimated
Thu 11:51:00 PM 25.7493 112.4106 341° North  Level Estimated
Thu 11:52:00 PM 25.8466 112.3732 341° North  Level Estimated
Thu 11:53:00 PM 25.9439 112.3357 341° North  Level Estimated
Thu 11:54:00 PM 26.0412 112.2981 341° North  Level Estimated
Thu 11:55:00 PM 26.1385 112.2605 341° North  Level Estimated
Thu 11:56:00 PM 26.2358 112.2228 341° North  Level Estimated
Thu 11:57:00 PM 26.3330 112.1850 341° North  Level Estimated
Thu 11:58:00 PM 26.4303 112.1472 341° North  Level Estimated
Thu 11:59:00 PM 26.5275 112.1093 341° North  Level Estimated
Fri 12:00:00 AM 26.6247 112.0714 341° North  Level Estimated
Fri 12:01:00 AM 26.7219 112.0333 341° North  Level Estimated
Fri 12:02:00 AM 26.8191 111.9952 341° North  Level Estimated
Fri 12:03:00 AM 26.9163 111.9571 341° North  Level Estimated
Fri 12:04:00 AM 27.0135 111.9189 341° North  Level Estimated
Fri 12:05:00 AM 27.1107 111.8806 341° North  Level Estimated
Fri 12:06:00 AM 27.2078 111.8423 341° North  Level Estimated
Fri 12:07:00 AM 27.3050 111.8038 341° North  Level Estimated
Fri 12:08:00 AM 27.4021 111.7654 341° North  Level Estimated
Fri 12:09:00 AM 27.4993 111.7268 341° North  Level Estimated
Fri 12:10:00 AM 27.5964 111.6882 341° North  Level Estimated
Fri 12:11:00 AM 27.6935 111.6495 341° North  Level Estimated
Fri 12:12:00 AM 27.7906 111.6108 341° North  Level Estimated
Fri 12:13:00 AM 27.8877 111.5720 341° North  Level Estimated
Fri 12:14:00 AM 27.9848 111.5331 341° North  Level Estimated
Fri 12:15:00 AM 28.0818 111.4941 341° North  Level Estimated
Fri 12:16:00 AM 28.1789 111.4551 340° North  Level Estimated
Fri 12:17:00 AM 28.2759 111.4160 340° North  Level Estimated
Fri 12:18:00 AM 28.3730 111.3768 340° North  Level Estimated
Fri 12:19:00 AM 28.4700 111.3375 340° North  Level Estimated
Fri 12:20:00 AM 28.5670 111.2982 340° North  Level Estimated
Fri 12:21:00 AM 28.6640 111.2588 340° North  Level Estimated
Fri 12:22:00 AM 28.7610 111.2194 340° North  Level Estimated
Fri 12:23:00 AM 28.8580 111.1798 340° North  Level Estimated
Fri 12:24:00 AM 28.9549 111.1402 340° North  Level Estimated
Fri 12:25:00 AM 29.0519 111.1005 340° North  Level Estimated
Fri 12:26:00 AM 29.1488 111.0608 340° North  Level Estimated
Fri 12:27:00 AM 29.2458 111.0209 340° North  Level Estimated
Fri 12:28:00 AM 29.3427 110.9810 340° North  Level Estimated
Fri 12:29:00 AM 29.4396 110.9410 340° North  Level Estimated
Fri 12:30:00 AM 29.5365 110.9010 340° North  Level Estimated
Fri 12:31:00 AM 29.6334 110.8608 340° North  Level Estimated
Fri 12:32:00 AM 29.7302 110.8206 340° North  Level Estimated
Fri 12:33:00 AM 29.8271 110.7803 340° North  Level Estimated
Fri 12:34:00 AM 29.9239 110.7400 340° North  Level Estimated
Fri 12:35:00 AM 30.0208 110.6995 340° North  Level Estimated
Fri 12:36:00 AM 30.1176 110.6590 340° North  Level Estimated
Fri 12:37:00 AM 30.2144 110.6184 340° North  Level Estimated
Fri 12:38:00 AM 30.3112 110.5777 340° North  Level Estimated
Fri 12:39:00 AM 30.4080 110.5369 340° North  Level Estimated
Fri 12:40:00 AM 30.5048 110.4960 340° North  Level Estimated
Fri 12:41:00 AM 30.6015 110.4551 340° North  Level Estimated
Fri 12:42:00 AM 30.6983 110.4141 340° North  Level Estimated
Fri 12:43:00 AM 30.7950 110.3730 340° North  Level Estimated
Fri 12:44:00 AM 30.8917 110.3318 340° North  Level Estimated
Fri 12:45:00 AM 30.9884 110.2906 340° North  Level Estimated
Fri 12:46:00 AM 31.0851 110.2492 340° North  Level Estimated
Fri 12:47:00 AM 31.1818 110.2078 340° North  Level Estimated
Fri 12:48:00 AM 31.2785 110.1663 340° North  Level Estimated
Fri 12:49:00 AM 31.3751 110.1247 340° North  Level Estimated
Fri 12:50:00 AM 31.4718 110.0830 340° North  Level Estimated
Fri 12:51:00 AM 31.5684 110.0412 340° North  Level Estimated
Fri 12:52:00 AM 31.6650 109.9993 340° North  Level Estimated
Fri 12:53:00 AM 31.7616 109.9574 340° North  Level Estimated
Fri 12:54:00 AM 31.8582 109.9154 340° North  Level Estimated
Fri 12:55:00 AM 31.9548 109.8732 340° North  Level Estimated
Fri 12:56:00 AM 32.0513 109.8310 340° North  Level Estimated
Fri 12:57:00 AM 32.1479 109.7887 340° North  Level Estimated
Fri 12:58:00 AM 32.2444 109.7463 340° North  Level Estimated
Fri 12:59:00 AM 32.3409 109.7039 340° North  Level Estimated
Fri 01:00:00 AM 32.4374 109.6613 340° North  Level Estimated
Fri 01:01:00 AM 32.5339 109.6186 340° North  Level Estimated
Fri 01:02:00 AM 32.6304 109.5759 340° North  Level Estimated
Fri 01:03:00 AM 32.7268 109.5330 340° North  Level Estimated
Fri 01:04:00 AM 32.8233 109.4901 339° North  Level Estimated
Fri 01:05:00 AM 32.9197 109.4471 339° North  Level Estimated
Fri 01:06:00 AM 33.0161 109.4039 339° North  Level Estimated
Fri 01:07:00 AM 33.1125 109.3607 339° North  Level Estimated
Fri 01:08:00 AM 33.2089 109.3174 339° North  Level Estimated
Fri 01:09:00 AM 33.3052 109.2740 339° North  Level Estimated
Fri 01:10:00 AM 33.4016 109.2305 339° North  Level Estimated
Fri 01:11:00 AM 33.4979 109.1869 339° North  Level Estimated
Fri 01:12:00 AM 33.5943 109.1432 339° North  Level Estimated
Fri 01:13:00 AM 33.6906 109.0994 339° North  Level Estimated
Fri 01:14:00 AM 33.7869 109.0555 339° North  Level Estimated
Fri 01:15:00 AM 33.8831 109.0115 339° North  Level Estimated
Fri 01:16:00 AM 33.9794 108.9674 339° North  Level Estimated
Fri 01:17:00 AM 34.0756 108.9232 339° North  Level Estimated
Fri 01:18:00 AM 34.1719 108.8789 339° North  Level Estimated
Fri 01:19:00 AM 34.2681 108.8345 339° North  Level Estimated
Fri 01:20:00 AM 34.3643 108.7900 339° North  Level Estimated
Fri 01:21:00 AM 34.4471 108.7516 339° North  Level Estimated
Fri 01:22:00 AM 34.4471 108.7516 North  Level Estimated
Fri 01:23:00 AM 34.4471 108.7516 North  Level Estimated
Fri 01:24:00 AM 34.4471 108.7516 North  Level Estimated
Fri 01:25:00 AM 34.4471 108.7516 North  Level Estimated
Fri 01:26:00 AM 34.4471 108.7516 North  Level Estimated
Fri 01:27:00 AM 34.4471 108.7516 North  Level Estimated
Fri 01:28:00 AM 34.4471 108.7516 North  Level Estimated
Fri 01:29:00 AM 34.4471 108.7516 North  Level Estimated
Fri 01:30:00 AM 34.4471 108.7516 North  Level Estimated
Fri 01:31:00 AM 34.4471 108.7516 North  Level Estimated
Fri 01:32:00 AM 34.4471 108.7516 North  Level Estimated
Fri 01:33:00 AM 34.4471 108.7516 North  Level Estimated
Fri 01:34:00 AM 34.4471 108.7516 North  Level Estimated
Fri 01:35:00 AM 34.4471 108.7516 North  Level Estimated
Fri 01:36:00 AM 34.4471 108.7516 North  Level Estimated

Login

Don't have an account? Register now (free) for customized features, flight alerts, and more!